Time;durP1;ratioP1;P1;durP2;ratioP2;P2;SDS_P1;SDS_P2;PMS_P1;PMS_P2;Temp;Humidity;BMP_temperature;BMP_pressure;BME280_temperature;BME280_humidity;BME280_pressure;Samples;Min_cycle;Max_cycle;Signal;HPM_P1;HPM_P2
2023/03/07 00:00:38;;;;;;;23.43;17.20;;;;;;;-143.84;71.34;45189.97;5091432;28;20479;-82
2023/03/07 00:03:05;;;;;;;31.77;17.63;;;;;;;-143.84;71.20;45178.56;5091839;28;20480;-83
2023/03/07 00:05:32;;;;;;;31.40;19.50;;;;;;;-143.84;71.34;45199.50;5091442;28;20447;-83
2023/03/07 00:07:59;;;;;;;24.30;15.50;;;;;;;-143.84;71.41;45159.50;5091038;28;20439;-83
2023/03/07 00:10:28;;;;;;;25.40;16.77;;;;;;;-143.84;71.88;45172.84;5091388;28;20430;-81
2023/03/07 00:12:55;;;;;;;25.97;16.40;;;;;;;-143.84;72.19;45186.16;5091030;28;20485;-80
2023/03/07 00:15:22;;;;;;;25.27;16.70;;;;;;;-143.84;71.86;45138.56;5091073;28;20860;-81
2023/03/07 00:17:49;;;;;;;25.10;16.80;;;;;;;-143.84;72.56;45176.66;5090148;28;20445;-81
2023/03/07 00:20:17;;;;;;;24.27;17.63;;;;;;;-143.84;72.08;45193.78;5090189;28;20433;-81
2023/03/07 00:22:45;;;;;;;28.40;16.53;;;;;;;-143.84;72.53;45189.97;5090598;28;20444;-81
2023/03/07 00:25:14;;;;;;;22.13;15.50;;;;;;;-143.84;73.10;45176.66;5091488;28;21179;-81
2023/03/07 00:27:43;;;;;;;22.20;15.97;;;;;;;-143.84;73.79;45148.09;5090680;28;20528;-79
2023/03/07 00:30:12;;;;;;;20.10;15.90;;;;;;;-143.84;74.36;45174.75;5090894;28;20522;-79
2023/03/07 00:32:39;;;;;;;26.17;17.20;;;;;;;-143.84;74.16;45191.88;5090731;28;20531;-79
2023/03/07 00:35:07;;;;;;;34.50;22.20;;;;;;;-143.84;74.36;45163.31;5091074;28;20506;-79
2023/03/07 00:37:34;;;;;;;40.70;20.33;;;;;;;-143.84;74.98;45170.94;5090519;28;21322;-79
2023/03/07 00:40:02;;;;;;;27.77;17.03;;;;;;;-143.84;74.93;45167.13;5078437;28;20523;-79
2023/03/07 00:42:29;;;;;;;37.33;21.63;;;;;;;-143.84;74.69;45165.22;5069672;28;20479;-79
2023/03/07 00:44:58;;;;;;;38.80;23.00;;;;;;;-143.84;74.75;45165.22;5069461;28;20802;-79
2023/03/07 00:47:25;;;;;;;54.47;26.53;;;;;;;-143.84;74.68;45174.75;5070561;28;20449;-79
2023/03/07 00:49:52;;;;;;;62.87;25.23;;;;;;;-143.84;74.55;45176.66;5070238;28;20471;-79
2023/03/07 00:52:19;;;;;;;46.70;21.17;;;;;;;-143.84;74.15;45146.19;5070162;28;20437;-79
2023/03/07 00:54:46;;;;;;;41.33;21.23;;;;;;;-143.84;73.90;45144.28;5070240;28;20434;-79
2023/03/07 00:57:13;;;;;;;42.20;20.10;;;;;;;-143.84;73.81;45193.78;5070395;28;20450;-80
2023/03/07 00:59:41;;;;;;;35.00;20.33;;;;;;;-143.84;73.91;45163.31;5071523;28;20518;-80
2023/03/07 01:02:09;;;;;;;37.30;18.23;;;;;;;-143.84;74.08;45186.16;5073975;28;20525;-80
2023/03/07 01:04:36;;;;;;;23.37;15.07;;;;;;;-143.84;74.05;45172.84;5073819;28;20505;-80
2023/03/07 01:07:03;;;;;;;19.87;14.30;;;;;;;-143.84;73.80;45161.41;5072768;28;20445;-80
2023/03/07 01:09:31;;;;;;;23.47;15.53;;;;;;;-143.84;73.81;45180.47;5072759;28;20450;-80
2023/03/07 01:11:58;;;;;;;27.10;16.97;;;;;;;-143.84;73.46;45189.97;5073791;28;20979;-80
2023/03/07 01:14:25;;;;;;;24.30;15.83;;;;;;;-143.84;73.22;45146.19;5073783;28;20510;-80
2023/03/07 01:16:52;;;;;;;20.67;15.83;;;;;;;-143.84;73.57;45176.66;5073786;28;20483;-81
2023/03/07 01:19:21;;;;;;;26.50;16.70;;;;;;;-143.84;73.53;45180.47;5073779;28;20942;-81
2023/03/07 01:21:48;;;;;;;31.43;17.73;;;;;;;-143.84;73.80;45155.69;5073564;28;21099;-80
2023/03/07 01:24:16;;;;;;;36.30;18.13;;;;;;;-143.84;74.04;45132.84;5073935;28;20430;-80
2023/03/07 01:26:44;;;;;;;29.27;17.07;;;;;;;-143.84;74.16;45161.41;5073586;28;20441;-80
2023/03/07 01:29:11;;;;;;;31.93;19.30;;;;;;;-143.84;74.58;45163.31;5073386;28;20445;-79
2023/03/07 01:31:39;;;;;;;49.37;19.00;;;;;;;-143.84;74.77;45148.09;5072721;28;20486;-79
2023/03/07 01:34:06;;;;;;;31.13;16.67;;;;;;;-143.84;75.22;45174.75;5072118;28;20438;-80
2023/03/07 01:36:35;;;;;;;22.00;15.63;;;;;;;-143.84;75.07;45180.47;5073123;28;20479;-79
2023/03/07 01:39:05;;;;;;;22.63;15.30;;;;;;;-143.84;74.98;45188.06;5073159;28;20492;-80
2023/03/07 01:41:33;;;;;;;24.73;17.07;;;;;;;-143.84;75.58;45161.41;5072390;28;20473;-79
2023/03/07 01:44:01;;;;;;;24.47;15.63;;;;;;;-143.84;75.58;45151.91;5070219;28;20503;-79
2023/03/07 01:46:44;;;;;;;21.80;15.77;;;;;;;-143.84;76.06;45153.81;5070298;28;20475;-79
2023/03/07 01:49:16;;;;;;;19.90;15.27;;;;;;;-143.84;77.00;45161.41;5072984;28;20445;-79
2023/03/07 01:51:49;;;;;;;24.57;15.40;;;;;;;-143.84;77.12;45125.22;5072485;28;20660;-80
2023/03/07 01:54:19;;;;;;;23.07;14.43;;;;;;;-143.84;77.37;45176.66;5072879;28;21010;-80
2023/03/07 01:56:47;;;;;;;24.93;14.87;;;;;;;-143.84;77.80;45146.19;5072067;28;20499;-81
2023/03/07 01:59:20;;;;;;;24.23;16.10;;;;;;;-143.84;77.71;45130.94;5071645;28;20896;-81
2023/03/07 02:01:48;;;;;;;22.10;15.20;;;;;;;-143.84;78.28;45161.41;5073296;28;20560;-82
2023/03/07 02:04:21;;;;;;;23.17;16.10;;;;;;;-143.84;78.20;45144.28;5073057;28;20438;-82
2023/03/07 02:06:49;;;;;;;21.00;14.60;;;;;;;-143.84;78.43;45138.56;5072745;28;20491;-81
2023/03/07 02:09:21;;;;;;;25.70;16.10;;;;;;;-143.84;79.21;45119.53;5072791;28;20453;-82
2023/03/07 02:11:49;;;;;;;23.27;15.10;;;;;;;-143.84;79.14;45144.28;5072418;28;20441;-82
2023/03/07 02:14:17;;;;;;;23.53;15.60;;;;;;;-143.84;79.45;45125.22;5073214;28;20512;-81
2023/03/07 02:16:44;;;;;;;21.97;15.27;;;;;;;-143.84;79.57;45146.19;5072822;28;20437;-81
2023/03/07 02:19:22;;;;;;;28.23;16.73;;;;;;;-143.84;79.25;45151.91;5072543;28;20444;-81
2023/03/07 02:21:59;;;;;;;22.63;16.53;;;;;;;-143.84;78.98;45127.13;5071070;28;20482;-82
2023/03/07 02:24:32;;;;;;;27.00;16.73;;;;;;;-143.84;79.25;45142.38;5073220;28;20436;-81
2023/03/07 02:27:01;;;;;;;19.53;15.30;;;;;;;-143.84;79.31;45121.44;5073302;28;20958;-81
2023/03/07 02:29:28;;;;;;;27.87;15.27;;;;;;;-143.84;79.70;45129.03;5073190;28;20450;-81
2023/03/07 02:31:55;;;;;;;24.50;15.60;;;;;;;-143.84;79.26;45136.66;5072197;28;20787;-83
2023/03/07 02:34:24;;;;;;;19.77;14.27;;;;;;;-143.84;80.02;45129.03;5072582;28;20430;-83
2023/03/07 02:36:55;;;;;;;32.63;16.63;;;;;;;-143.84;80.21;45119.53;5072819;28;20542;-80
2023/03/07 02:39:28;;;;;;;24.90;15.20;;;;;;;-143.84;80.32;45121.44;5072991;28;20461;-81
2023/03/07 02:41:57;;;;;;;20.33;15.10;;;;;;;-143.84;79.99;45127.13;5072581;28;21032;-81
2023/03/07 02:44:26;;;;;;;23.77;14.77;;;;;;;-143.84;80.20;45138.56;5072908;28;20444;-81
2023/03/07 02:46:53;;;;;;;21.63;15.27;;;;;;;-143.84;80.83;45144.28;5071597;28;20518;-81
2023/03/07 02:49:20;;;;;;;24.87;15.30;;;;;;;-143.84;80.73;45117.63;5072678;28;20433;-81
2023/03/07 02:51:47;;;;;;;29.70;17.03;;;;;;;-143.84;81.06;45136.66;5072446;28;20445;-81
2023/03/07 02:54:14;;;;;;;22.67;15.67;;;;;;;-143.84;80.99;45102.38;5072365;28;20444;-81
2023/03/07 02:56:41;;;;;;;25.03;14.90;;;;;;;-143.84;81.24;45121.44;5072070;28;20491;-81
2023/03/07 02:59:09;;;;;;;26.87;14.93;;;;;;;-143.84;80.67;45121.44;5072369;28;20429;-80
2023/03/07 03:01:37;;;;;;;23.27;15.07;;;;;;;-143.84;80.69;45108.09;5072015;28;20499;-80
2023/03/07 03:04:04;;;;;;;19.80;14.80;;;;;;;-143.84;80.90;45090.97;5071804;28;20970;-75
2023/03/07 03:06:31;;;;;;;19.93;13.20;;;;;;;-143.84;81.04;45129.03;5069534;28;21316;-75
2023/03/07 03:08:59;;;;;;;20.10;14.10;;;;;;;-143.84;81.16;45119.53;5069483;28;20511;-75
2023/03/07 03:11:26;;;;;;;18.83;14.40;;;;;;;-143.84;80.87;45077.63;5068549;28;20532;-75
2023/03/07 03:13:53;;;;;;;19.27;13.20;;;;;;;-143.84;80.84;45102.38;5069270;28;20502;-75
2023/03/07 03:16:20;;;;;;;21.07;14.43;;;;;;;-143.84;80.35;45129.03;5069541;28;20957;-75
2023/03/07 03:18:49;;;;;;;24.80;14.43;;;;;;;-143.84;79.99;45094.78;5069443;28;20499;-75
2023/03/07 03:21:16;;;;;;;19.60;14.20;;;;;;;-143.84;79.62;45157.59;5068988;28;20445;-75
2023/03/07 03:23:43;;;;;;;23.00;14.43;;;;;;;-143.84;79.76;45115.72;5068822;28;20431;-75
2023/03/07 03:26:11;;;;;;;24.80;13.93;;;;;;;-143.84;79.45;45106.19;5069622;28;20874;-75
2023/03/07 03:28:39;;;;;;;17.73;13.03;;;;;;;-143.84;79.37;45157.59;5069114;28;20452;-75
2023/03/07 03:31:08;;;;;;;20.80;14.63;;;;;;;-143.84;78.55;45159.50;5069094;28;21021;-75
2023/03/07 03:33:36;;;;;;;18.67;12.83;;;;;;;-143.84;78.46;45113.81;5069202;28;20434;-75
2023/03/07 03:36:09;;;;;;;23.20;14.07;;;;;;;-143.84;77.95;45170.94;5068065;28;20511;-75
2023/03/07 03:38:36;;;;;;;18.80;13.23;;;;;;;-143.84;77.95;45163.31;5068899;28;20459;-76
2023/03/07 03:41:05;;;;;;;19.90;14.40;;;;;;;-143.84;77.34;45125.22;5069392;28;20517;-76
2023/03/07 03:43:32;;;;;;;16.30;13.13;;;;;;;-143.84;77.05;45169.03;5069149;28;20511;-76
2023/03/07 03:46:00;;;;;;;17.67;13.30;;;;;;;-143.84;77.54;45144.28;5069253;28;20497;-75
2023/03/07 03:48:27;;;;;;;19.07;13.63;;;;;;;-143.84;76.75;45163.31;5069000;28;21172;-75
2023/03/07 03:51:01;;;;;;;22.73;16.63;;;;;;;-143.84;76.87;45157.59;5069357;28;20877;-75
2023/03/07 03:53:30;;;;;;;20.97;14.10;;;;;;;-143.84;76.14;45165.22;5068825;28;21005;-75
2023/03/07 03:56:03;;;;;;;37.83;21.93;;;;;;;-143.84;76.25;45151.91;5084018;28;20871;-75
2023/03/07 03:58:30;;;;;;;24.70;16.90;;;;;;;-143.84;75.96;45153.81;5088858;28;20448;-75
2023/03/07 04:00:57;;;;;;;26.50;17.13;;;;;;;-143.84;76.25;45153.81;5088254;28;20836;-75
2023/03/07 04:03:25;;;;;;;27.07;16.57;;;;;;;-143.84;75.74;45199.50;5088909;28;20533;-75
2023/03/07 04:05:52;;;;;;;27.50;16.17;;;;;;;-143.84;76.06;45151.91;5089127;28;20455;-75
2023/03/07 04:08:20;;;;;;;21.13;15.17;;;;;;;-143.84;75.64;45151.91;5088796;28;20436;-75
2023/03/07 04:10:49;;;;;;;16.83;13.13;;;;;;;-143.84;75.63;45165.22;5088780;28;20444;-75
2023/03/07 04:13:16;;;;;;;21.70;12.67;;;;;;;-143.84;75.95;45153.81;5089151;28;20458;-77
2023/03/07 04:15:43;;;;;;;19.57;14.33;;;;;;;-143.84;76.16;45161.41;5088616;28;20502;-75
2023/03/07 04:18:10;;;;;;;16.07;11.97;;;;;;;-143.84;75.26;45157.59;5088370;28;21120;-74
2023/03/07 04:20:38;;;;;;;23.73;13.60;;;;;;;-143.84;75.12;45159.50;5089038;28;20448;-75
2023/03/07 04:23:05;;;;;;;21.40;15.30;;;;;;;-143.84;75.26;45140.47;5088747;28;21041;-74
2023/03/07 04:25:32;;;;;;;22.10;13.20;;;;;;;-143.84;74.95;45157.59;5088879;28;20449;-75
2023/03/07 04:28:01;;;;;;;24.20;13.97;;;;;;;-143.84;74.99;45176.66;5084688;28;20458;-75
2023/03/07 04:30:28;;;;;;;16.23;11.80;;;;;;;-143.84;74.83;45169.03;5089101;28;20544;-73
2023/03/07 04:32:55;;;;;;;16.10;12.20;;;;;;;-143.84;74.67;45170.94;5088243;28;20505;-74
2023/03/07 04:35:23;;;;;;;20.13;13.47;;;;;;;-143.84;74.44;45150.00;5092802;28;20971;-72
2023/03/07 04:37:50;;;;;;;17.83;12.57;;;;;;;-143.84;74.43;45186.16;5093166;28;20492;-74
2023/03/07 04:40:17;;;;;;;17.90;13.03;;;;;;;-143.84;74.08;45170.94;5093173;28;20485;-75
2023/03/07 04:42:44;;;;;;;20.70;12.73;;;;;;;-143.84;74.06;45151.91;5093028;28;20483;-74
2023/03/07 04:45:13;;;;;;;19.03;13.40;;;;;;;-143.84;73.97;45165.22;5093173;28;20437;-74
2023/03/07 04:47:40;;;;;;;37.87;19.33;;;;;;;-143.84;74.41;45180.47;5093871;28;20432;-75
2023/03/07 04:50:08;;;;;;;29.10;17.00;;;;;;;-143.84;74.21;45180.47;5093883;28;20449;-75
2023/03/07 04:52:35;;;;;;;26.87;14.73;;;;;;;-143.84;74.35;45146.19;5094126;28;20470;-73
2023/03/07 04:55:02;;;;;;;33.70;18.70;;;;;;;-143.84;74.53;45129.03;5092724;28;20452;-73
2023/03/07 04:57:29;;;;;;;23.40;14.53;;;;;;;-143.84;74.81;45203.31;5092102;28;20457;-73
2023/03/07 04:59:56;;;;;;;22.93;14.90;;;;;;;-143.84;74.64;45165.22;5092567;28;20515;-73
2023/03/07 05:02:25;;;;;;;17.50;13.10;;;;;;;-143.84;74.70;45172.84;5092225;28;20488;-73
2023/03/07 05:04:52;;;;;;;24.97;15.20;;;;;;;-143.84;74.44;45167.13;5091846;28;20961;-73
2023/03/07 05:07:19;;;;;;;23.70;13.90;;;;;;;-143.84;74.27;45148.09;5091870;28;20497;-73
2023/03/07 05:09:46;;;;;;;26.50;14.90;;;;;;;-143.84;74.21;45174.75;5091914;28;20453;-73
2023/03/07 05:12:13;;;;;;;20.70;14.90;;;;;;;-143.84;73.77;45180.47;5092261;28;20437;-73
2023/03/07 05:14:40;;;;;;;28.10;14.53;;;;;;;-143.84;73.70;45153.81;5092155;28;20444;-73
2023/03/07 05:17:08;;;;;;;23.87;16.13;;;;;;;-143.84;73.91;45157.59;5091792;28;20479;-73
2023/03/07 05:19:36;;;;;;;21.33;15.53;;;;;;;-143.84;73.85;45157.59;5092132;28;20522;-73
2023/03/07 05:22:04;;;;;;;24.33;16.93;;;;;;;-143.84;73.76;45153.81;5091802;28;20482;-73
2023/03/07 05:24:31;;;;;;;22.97;17.13;;;;;;;-143.84;74.12;45146.19;5091829;28;20444;-73
2023/03/07 05:26:58;;;;;;;19.17;14.30;;;;;;;-143.84;74.27;45142.38;5093448;28;20441;-76
2023/03/07 05:29:25;;;;;;;23.00;15.07;;;;;;;-143.84;74.37;45155.69;5075532;28;20485;-76
2023/03/07 05:31:52;;;;;;;23.33;13.67;;;;;;;-143.84;74.16;45180.47;5071982;28;20442;-78
2023/03/07 05:34:20;;;;;;;21.47;13.90;;;;;;;-143.84;74.59;45148.09;5073757;28;20418;-74
2023/03/07 05:36:48;;;;;;;27.37;14.43;;;;;;;-143.84;74.01;45172.84;5073066;28;20985;-77
2023/03/07 05:39:15;;;;;;;15.40;12.10;;;;;;;-143.84;73.55;45136.66;5073246;28;21036;-77
2023/03/07 05:41:43;;;;;;;17.83;13.03;;;;;;;-143.84;73.35;45167.13;5073537;28;21222;-77
2023/03/07 05:44:10;;;;;;;15.00;10.37;;;;;;;-143.84;74.38;45150.00;5073634;28;20448;-75
2023/03/07 05:46:37;;;;;;;17.60;12.50;;;;;;;-143.84;73.04;45167.13;5072358;28;20511;-73
2023/03/07 05:49:04;;;;;;;18.43;12.37;;;;;;;-143.84;71.02;45165.22;5073395;28;20447;-79
2023/03/07 05:51:31;;;;;;;16.60;11.03;;;;;;;-143.84;69.11;45142.38;5073576;28;21231;-79
2023/03/07 05:54:00;;;;;;;15.30;11.50;;;;;;;-143.84;68.22;45130.94;5073359;28;20437;-79
2023/03/07 05:56:27;;;;;;;13.67;11.30;;;;;;;-143.84;66.03;45142.38;5072396;28;20476;-79
2023/03/07 05:58:54;;;;;;;14.00;11.43;;;;;;;-143.84;64.90;45157.59;5071054;28;20532;-79
2023/03/07 06:01:21;;;;;;;18.37;13.10;;;;;;;-143.84;64.26;45180.47;5071607;28;20438;-79
2023/03/07 06:03:48;;;;;;;15.00;11.80;;;;;;;-143.84;62.93;45142.38;5072873;28;20473;-79
2023/03/07 06:06:15;;;;;;;13.20;10.90;;;;;;;-143.84;60.81;45138.56;5073442;28;20432;-79
2023/03/07 06:08:42;;;;;;;17.93;11.70;;;;;;;-143.84;59.43;45129.03;5092653;28;21006;-79
2023/03/07 06:11:11;;;;;;;16.60;11.97;;;;;;;-143.84;57.63;45151.91;5093282;28;20440;-79
2023/03/07 06:13:38;;;;;;;19.10;11.80;;;;;;;-143.84;58.53;45144.28;5093244;28;20531;-79
2023/03/07 06:16:06;;;;;;;15.47;11.03;;;;;;;-143.84;57.45;45138.56;5093230;28;20441;-79
2023/03/07 06:18:33;;;;;;;14.20;10.83;;;;;;;-143.84;57.43;45142.38;5092653;28;20430;-78
2023/03/07 06:21:02;;;;;;;17.20;11.40;;;;;;;-143.84;56.76;45161.41;5093173;28;20512;-78
2023/03/07 06:23:30;;;;;;;12.20;9.37;;;;;;;-143.84;56.22;45180.47;5093211;28;20466;-78
2023/03/07 06:25:58;;;;;;;14.50;10.20;;;;;;;-143.84;56.46;45121.44;5090667;28;20438;-78
2023/03/07 06:28:27;;;;;;;13.43;10.40;;;;;;;-143.84;56.63;45130.94;5092684;28;20435;-79
2023/03/07 06:30:54;;;;;;;13.07;11.03;;;;;;;-143.84;55.96;45127.13;5092925;28;20464;-78
2023/03/07 06:33:21;;;;;;;16.83;11.17;;;;;;;-143.84;54.89;45157.59;5092944;28;20482;-78
2023/03/07 06:35:48;;;;;;;13.07;10.67;;;;;;;-143.84;55.36;45159.50;5092112;28;20925;-79
2023/03/07 06:38:17;;;;;;;14.57;11.10;;;;;;;-143.84;55.71;45132.84;5092006;28;21003;-77
2023/03/07 06:40:44;;;;;;;15.87;11.80;;;;;;;-143.84;55.43;45150.00;5093117;28;20519;-77
2023/03/07 06:43:12;;;;;;;23.80;14.00;;;;;;;-143.84;54.73;45125.22;5093009;28;20475;-77
2023/03/07 06:45:40;;;;;;;19.73;13.00;;;;;;;-143.84;55.11;45127.13;5092573;28;20440;-77
2023/03/07 06:48:07;;;;;;;23.90;12.40;;;;;;;-143.84;54.68;45150.00;5093320;28;20444;-77
2023/03/07 06:50:34;;;;;;;15.53;12.20;;;;;;;-143.84;54.09;45125.22;5092811;28;20439;-77
2023/03/07 06:53:01;;;;;;;11.87;9.77;;;;;;;-143.84;54.49;45111.91;5091412;28;20465;-73
2023/03/07 06:55:29;;;;;;;14.63;11.03;;;;;;;-143.84;54.05;45123.34;5091108;28;20954;-77
2023/03/07 06:57:56;;;;;;;13.57;10.60;;;;;;;-143.84;51.87;45136.66;5092214;28;20435;-77
2023/03/07 07:00:23;;;;;;;18.70;13.00;;;;;;;-143.84;52.61;45132.84;5092767;28;20486;-77
2023/03/07 07:02:51;;;;;;;18.10;10.40;;;;;;;-143.84;51.70;45136.66;5093004;28;20466;-77
2023/03/07 07:05:18;;;;;;;19.27;13.23;;;;;;;-143.84;51.81;45117.63;5092269;28;21122;-77
2023/03/07 07:07:46;;;;;;;14.53;11.30;;;;;;;-143.84;51.37;45123.34;5092192;28;20418;-77
2023/03/07 07:10:13;;;;;;;14.40;11.47;;;;;;;-143.84;51.94;45142.38;5092618;28;20440;-77
2023/03/07 07:12:40;;;;;;;17.00;12.37;;;;;;;-143.84;52.28;45121.44;5091847;28;21277;-77
2023/03/07 07:15:09;;;;;;;13.70;11.40;;;;;;;-143.84;52.60;45119.53;5091912;28;20483;-77
2023/03/07 07:17:37;;;;;;;13.03;9.67;;;;;;;-143.84;52.10;45117.63;5092088;28;20921;-77
2023/03/07 07:20:10;;;;;;;18.07;13.37;;;;;;;-143.84;52.47;45134.75;5091864;28;20519;-77
2023/03/07 07:22:37;;;;;;;18.10;12.30;;;;;;;-143.84;51.93;45125.22;5088759;28;20511;-77
2023/03/07 07:25:04;;;;;;;13.23;10.67;;;;;;;-143.84;51.02;45142.38;5091654;28;20499;-77
2023/03/07 07:27:31;;;;;;;14.63;10.90;;;;;;;-143.84;50.88;45110.00;5091738;28;20432;-77
2023/03/07 07:29:58;;;;;;;14.33;12.47;;;;;;;-143.84;51.16;45117.63;5091875;28;20501;-77
2023/03/07 07:32:26;;;;;;;16.90;11.27;;;;;;;-143.84;50.96;45115.72;5091541;28;20451;-77
2023/03/07 07:34:53;;;;;;;16.83;11.13;;;;;;;-143.84;50.70;45121.44;5091991;28;20443;-76
2023/03/07 07:37:21;;;;;;;14.63;10.50;;;;;;;-143.84;50.53;45130.94;5091296;28;20475;-76
2023/03/07 07:39:49;;;;;;;17.87;13.43;;;;;;;-143.84;51.01;45096.66;5091761;28;20462;-77
2023/03/07 07:42:16;;;;;;;13.37;10.20;;;;;;;-143.84;49.43;45106.19;5092226;28;20435;-76
2023/03/07 07:44:45;;;;;;;16.20;10.93;;;;;;;-143.84;49.08;45110.00;5092391;28;20547;-77
2023/03/07 07:47:13;;;;;;;17.00;11.70;;;;;;;-143.84;48.65;45119.53;5091785;28;20445;-77
2023/03/07 07:49:40;;;;;;;16.93;10.27;;;;;;;-143.84;47.92;45102.38;5091770;28;20420;-77
2023/03/07 07:52:07;;;;;;;20.60;10.80;;;;;;;-143.84;48.37;45111.91;5091724;28;20432;-77
2023/03/07 07:54:36;;;;;;;16.90;10.90;;;;;;;-143.84;47.77;45117.63;5092316;28;20483;-77
2023/03/07 07:57:03;;;;;;;21.77;10.50;;;;;;;-143.84;47.17;45087.16;5092293;28;20444;-77
2023/03/07 07:59:32;;;;;;;14.23;11.07;;;;;;;-143.84;46.63;45104.28;5092052;28;20453;-77
2023/03/07 08:02:00;;;;;;;11.83;10.53;;;;;;;-143.84;46.52;45087.16;5092201;28;20444;-76
2023/03/07 08:04:27;;;;;;;15.50;10.73;;;;;;;-143.84;46.46;45106.19;5092027;28;20519;-77
2023/03/07 08:06:54;;;;;;;11.80;9.67;;;;;;;-143.84;46.09;45096.66;5092079;28;20434;-78
2023/03/07 08:09:21;;;;;;;13.00;9.00;;;;;;;-143.84;45.67;45115.72;5090922;28;20490;-77
2023/03/07 08:11:50;;;;;;;9.03;8.10;;;;;;;-143.84;45.06;45115.72;5091011;28;20439;-76
2023/03/07 08:14:17;;;;;;;9.13;8.13;;;;;;;-143.84;44.59;45106.19;5091326;28;20445;-77
2023/03/07 08:16:44;;;;;;;14.93;10.50;;;;;;;-143.84;44.58;45092.88;5091364;28;20423;-77
2023/03/07 08:19:11;;;;;;;13.43;10.10;;;;;;;-143.84;44.94;45104.28;5091191;28;20451;-77
2023/03/07 08:21:39;;;;;;;13.87;10.30;;;;;;;-143.84;44.55;45087.16;5090405;28;20428;-75
2023/03/07 08:24:06;;;;;;;12.17;9.57;;;;;;;-143.84;44.28;45083.34;5091371;28;20558;-76
2023/03/07 08:26:34;;;;;;;17.03;9.87;;;;;;;-143.84;43.35;45085.25;5091101;28;20494;-77
2023/03/07 08:29:02;;;;;;;10.93;8.07;;;;;;;-143.84;43.25;45106.19;5071337;28;20444;-79
2023/03/07 08:31:29;;;;;;;14.47;11.03;;;;;;;-143.84;43.47;45113.81;5070367;28;20447;-79
2023/03/07 08:33:57;;;;;;;12.90;9.63;;;;;;;-143.84;43.50;45089.06;5070803;28;20489;-80
2023/03/07 08:36:24;;;;;;;9.70;8.60;;;;;;;-143.84;43.09;45111.91;5070824;28;20483;-80
2023/03/07 08:38:53;;;;;;;14.20;11.83;;;;;;;-143.84;42.67;45075.72;5070258;28;20440;-80
2023/03/07 08:41:22;;;;;;;16.63;11.10;;;;;;;-143.84;42.93;45089.06;5070577;28;20436;-80
2023/03/07 08:43:49;;;;;;;13.57;11.30;;;;;;;-143.84;43.32;45085.25;5070494;28;20517;-80
2023/03/07 08:46:18;;;;;;;20.10;9.53;;;;;;;-143.84;42.46;45096.66;5070754;28;20440;-80
2023/03/07 08:48:45;;;;;;;12.80;9.50;;;;;;;-143.84;42.47;45075.72;5070250;28;21015;-80
2023/03/07 08:51:15;;;;;;;30.70;12.43;;;;;;;-143.84;43.35;45096.66;5068554;28;20448;-80
2023/03/07 08:53:43;;;;;;;12.57;9.33;;;;;;;-143.84;42.33;45085.25;5070197;28;20464;-80
2023/03/07 08:56:12;;;;;;;20.00;11.47;;;;;;;-143.84;42.99;45085.25;5069981;28;20815;-80
2023/03/07 08:58:40;;;;;;;20.20;10.13;;;;;;;-143.84;42.87;45085.25;5070797;28;20429;-80
2023/03/07 09:01:08;;;;;;;17.50;11.10;;;;;;;-143.84;41.76;45087.16;5070116;28;20448;-80
2023/03/07 09:03:36;;;;;;;12.30;9.37;;;;;;;-143.84;41.80;45111.91;5070096;28;20472;-80
2023/03/07 09:06:05;;;;;;;15.60;11.83;;;;;;;-143.84;42.21;45083.34;5070243;28;20502;-80
2023/03/07 09:08:33;;;;;;;22.33;12.70;;;;;;;-143.84;41.95;45073.81;5070496;28;20846;-80
2023/03/07 09:11:02;;;;;;;15.63;12.43;;;;;;;-143.84;42.68;45083.34;5070249;28;20422;-80
2023/03/07 09:13:29;;;;;;;26.67;11.40;;;;;;;-143.84;42.49;45098.56;5070407;28;20486;-80
2023/03/07 09:15:56;;;;;;;13.60;10.53;;;;;;;-143.84;41.78;45068.13;5070800;28;20785;-80
2023/03/07 09:18:24;;;;;;;19.40;9.93;;;;;;;-143.84;40.70;45050.97;5070499;28;20449;-80
2023/03/07 09:20:52;;;;;;;18.73;13.00;;;;;;;-143.84;41.50;45066.22;5070037;28;21007;-79
2023/03/07 09:23:19;;;;;;;16.50;12.90;;;;;;;-143.84;41.28;45070.00;5072675;28;20477;-80
2023/03/07 09:25:47;;;;;;;25.37;10.50;;;;;;;-143.84;40.88;45081.44;5073147;28;20444;-80
2023/03/07 09:28:14;;;;;;;25.40;11.17;;;;;;;-143.84;39.80;45060.50;5073786;28;20436;-80
2023/03/07 09:30:41;;;;;;;17.27;13.00;;;;;;;-143.84;39.73;45087.16;5073873;28;20958;-80
2023/03/07 09:33:08;;;;;;;16.77;10.87;;;;;;;-143.84;39.57;45071.91;5073566;28;20440;-80
2023/03/07 09:35:37;;;;;;;15.90;12.30;;;;;;;-143.84;39.65;45070.00;5073554;28;20444;-80
2023/03/07 09:38:06;;;;;;;18.17;13.17;;;;;;;-143.84;39.73;45090.97;5073154;28;20481;-80
2023/03/07 09:40:33;;;;;;;25.80;13.60;;;;;;;-143.84;38.04;45054.78;5073394;28;20453;-80
2023/03/07 09:43:08;;;;;;;22.10;11.60;;;;;;;-143.84;38.61;45054.78;5072893;28;20502;-80
2023/03/07 09:45:45;;;;;;;22.00;12.60;;;;;;;-143.84;38.88;45073.81;5073425;28;20428;-80
2023/03/07 09:48:43;;;;;;;14.40;11.20;;;;;;;-143.84;38.92;45045.25;5073099;28;20511;-80
2023/03/07 09:51:17;;;;;;;14.50;11.20;;;;;;;-143.84;38.97;45052.88;5072931;28;20863;-80
2023/03/07 09:53:49;;;;;;;13.23;10.93;;;;;;;-143.84;38.89;45068.13;5072379;28;20506;-80
2023/03/07 09:56:23;;;;;;;17.90;12.30;;;;;;;-143.84;38.50;45060.50;5072678;28;20440;-80
2023/03/07 09:58:58;;;;;;;14.23;11.47;;;;;;;-143.84;38.86;45070.00;5073005;28;20437;-80
2023/03/07 10:01:29;;;;;;;22.93;12.73;;;;;;;-143.84;39.88;45049.06;5072617;28;20436;-80
2023/03/07 10:04:01;;;;;;;15.60;11.70;;;;;;;-143.84;39.37;45083.34;5072784;28;20994;-80
2023/03/07 10:06:35;;;;;;;24.77;12.53;;;;;;;-143.84;39.52;45071.91;5072770;28;20942;-80
2023/03/07 10:09:07;;;;;;;15.73;11.00;;;;;;;-143.84;39.43;45062.41;5073083;28;20512;-80
2023/03/07 10:11:53;;;;;;;19.83;11.90;;;;;;;-143.84;39.31;45087.16;5072859;28;20459;-80
2023/03/07 10:14:43;;;;;;;14.73;11.53;;;;;;;-143.84;39.24;45071.91;5072626;28;20946;-80
2023/03/07 10:17:23;;;;;;;17.10;11.83;;;;;;;-143.84;39.95;45094.78;5071853;28;20448;-80
2023/03/07 10:19:52;;;;;;;16.80;11.77;;;;;;;-143.84;40.29;45079.53;5070096;28;20452;-80
2023/03/07 10:22:28;;;;;;;23.13;11.73;;;;;;;-143.84;40.90;45092.88;5069639;28;20453;-80
2023/03/07 10:25:12;;;;;;;13.13;9.93;;;;;;;-143.84;40.57;45094.78;5069392;28;20533;-80
2023/03/07 10:27:40;;;;;;;12.97;10.10;;;;;;;-143.84;41.48;45144.28;5069744;28;20564;-80
2023/03/07 10:30:16;;;;;;;14.07;9.63;;;;;;;-143.84;41.44;45083.34;5071953;28;21323;-80
2023/03/07 10:32:45;;;;;;;12.00;9.17;;;;;;;-143.84;41.83;45085.25;5071824;28;21295;-80
2023/03/07 10:35:20;;;;;;;14.00;9.20;;;;;;;-143.84;41.44;45070.00;5072025;28;20445;-80
2023/03/07 10:37:53;;;;;;;11.80;8.80;;;;;;;-143.84;41.51;45085.25;5071609;28;20468;-80
2023/03/07 10:40:25;;;;;;;11.70;8.93;;;;;;;-143.84;41.65;45127.13;5072503;28;20475;-80
2023/03/07 10:42:53;;;;;;;10.57;8.90;;;;;;;-143.84;42.28;45079.53;5072021;28;20518;-80
2023/03/07 10:45:21;;;;;;;13.47;10.13;;;;;;;-143.84;41.99;45081.44;5072217;28;20505;-80
2023/03/07 10:47:48;;;;;;;9.83;8.20;;;;;;;-143.84;41.97;45087.16;5070140;28;20448;-80
2023/03/07 10:50:27;;;;;;;16.80;8.80;;;;;;;-143.84;42.11;45104.28;5071447;28;20437;-80
2023/03/07 10:52:57;;;;;;;9.87;8.87;;;;;;;-143.84;42.46;45104.28;5071770;28;20483;-80
2023/03/07 10:55:40;;;;;;;15.23;9.37;;;;;;;-143.84;42.26;45073.81;5072177;28;20437;-80
2023/03/07 10:58:18;;;;;;;13.43;9.40;;;;;;;-143.84;41.12;45115.72;5071965;28;20448;-80
2023/03/07 11:00:57;;;;;;;14.70;9.70;;;;;;;-143.84;41.03;45075.72;5071925;28;20440;-80
2023/03/07 11:03:30;;;;;;;12.50;8.90;;;;;;;-143.84;41.65;45077.63;5071987;28;20439;-80
2023/03/07 11:05:58;;;;;;;12.90;9.17;;;;;;;-143.84;42.61;45090.97;5071829;28;20444;-80
2023/03/07 11:08:30;;;;;;;14.80;9.67;;;;;;;-143.84;43.42;45070.00;5072846;28;20483;-80